sensor_id;sensor_type;location;lat;lon;timestamp;temperature;humidity
23813;DHT22;12087;45.190;5.688;2023-02-28T00:00:34;4.50;99.90
23813;DHT22;12087;45.190;5.688;2023-02-28T00:05:56;4.40;99.90
23813;DHT22;12087;45.190;5.688;2023-02-28T00:11:20;4.50;99.90
23813;DHT22;12087;45.190;5.688;2023-02-28T00:16:43;4.60;99.90
23813;DHT22;12087;45.190;5.688;2023-02-28T00:22:05;4.60;99.90
23813;DHT22;12087;45.190;5.688;2023-02-28T00:27:29;4.60;99.90
23813;DHT22;12087;45.190;5.688;2023-02-28T00:32:51;4.60;99.90
23813;DHT22;12087;45.190;5.688;2023-02-28T00:38:14;4.60;99.90
23813;DHT22;12087;45.190;5.688;2023-02-28T00:43:38;4.60;99.90
23813;DHT22;12087;45.190;5.688;2023-02-28T00:49:01;4.70;99.90
23813;DHT22;12087;45.190;5.688;2023-02-28T00:54:23;4.80;99.90
23813;DHT22;12087;45.190;5.688;2023-02-28T00:59:47;4.80;99.90
23813;DHT22;12087;45.190;5.688;2023-02-28T01:05:10;4.80;99.90
23813;DHT22;12087;45.190;5.688;2023-02-28T01:10:32;4.90;99.90
23813;DHT22;12087;45.190;5.688;2023-02-28T01:15:59;4.90;99.90
23813;DHT22;12087;45.190;5.688;2023-02-28T01:21:21;5.00;99.90
23813;DHT22;12087;45.190;5.688;2023-02-28T01:26:44;4.90;99.90
23813;DHT22;12087;45.190;5.688;2023-02-28T01:32:07;5.00;99.90
23813;DHT22;12087;45.190;5.688;2023-02-28T01:37:30;5.00;99.90
23813;DHT22;12087;45.190;5.688;2023-02-28T01:42:52;4.90;99.90
23813;DHT22;12087;45.190;5.688;2023-02-28T01:48:16;4.90;99.90
23813;DHT22;12087;45.190;5.688;2023-02-28T01:53:42;4.90;99.90
23813;DHT22;12087;45.190;5.688;2023-02-28T01:59:06;4.80;99.90
23813;DHT22;12087;45.190;5.688;2023-02-28T02:04:34;4.70;99.90
23813;DHT22;12087;45.190;5.688;2023-02-28T02:10:02;4.60;99.90
23813;DHT22;12087;45.190;5.688;2023-02-28T02:15:30;4.60;99.90
23813;DHT22;12087;45.190;5.688;2023-02-28T02:21:37;4.60;99.90
23813;DHT22;12087;45.190;5.688;2023-02-28T02:27:13;4.60;99.90
23813;DHT22;12087;45.190;5.688;2023-02-28T02:33:18;4.60;99.90
23813;DHT22;12087;45.190;5.688;2023-02-28T02:38:52;4.50;99.90
23813;DHT22;12087;45.190;5.688;2023-02-28T02:44:20;4.50;99.90
23813;DHT22;12087;45.190;5.688;2023-02-28T02:49:46;4.50;99.90
23813;DHT22;12087;45.190;5.688;2023-02-28T02:55:12;4.50;99.90
23813;DHT22;12087;45.190;5.688;2023-02-28T03:00:38;4.50;99.90
23813;DHT22;12087;45.190;5.688;2023-02-28T03:06:02;4.60;99.90
23813;DHT22;12087;45.190;5.688;2023-02-28T03:11:26;4.50;99.90
23813;DHT22;12087;45.190;5.688;2023-02-28T03:17:06;4.50;99.90
23813;DHT22;12087;45.190;5.688;2023-02-28T03:22:41;4.50;99.90
23813;DHT22;12087;45.190;5.688;2023-02-28T03:28:15;4.50;99.90
23813;DHT22;12087;45.190;5.688;2023-02-28T03:33:40;4.40;99.90
23813;DHT22;12087;45.190;5.688;2023-02-28T03:39:07;4.40;99.90
23813;DHT22;12087;45.190;5.688;2023-02-28T03:44:36;4.30;99.90
23813;DHT22;12087;45.190;5.688;2023-02-28T03:50:00;4.30;99.90
23813;DHT22;12087;45.190;5.688;2023-02-28T03:55:25;4.30;99.90
23813;DHT22;12087;45.190;5.688;2023-02-28T04:00:55;4.30;99.90
23813;DHT22;12087;45.190;5.688;2023-02-28T04:06:21;4.30;99.90
23813;DHT22;12087;45.190;5.688;2023-02-28T04:11:45;4.30;99.90
23813;DHT22;12087;45.190;5.688;2023-02-28T04:17:10;4.20;99.90
23813;DHT22;12087;45.190;5.688;2023-02-28T04:22:33;4.20;99.90
23813;DHT22;12087;45.190;5.688;2023-02-28T04:27:55;4.20;99.90
23813;DHT22;12087;45.190;5.688;2023-02-28T04:33:18;4.20;99.90
23813;DHT22;12087;45.190;5.688;2023-02-28T04:38:41;4.10;99.90
23813;DHT22;12087;45.190;5.688;2023-02-28T04:44:03;4.10;99.90
23813;DHT22;12087;45.190;5.688;2023-02-28T04:49:27;4.00;99.90
23813;DHT22;12087;45.190;5.688;2023-02-28T04:54:49;4.00;99.90
23813;DHT22;12087;45.190;5.688;2023-02-28T05:00:12;4.00;99.90
23813;DHT22;12087;45.190;5.688;2023-02-28T05:05:38;4.00;99.90
23813;DHT22;12087;45.190;5.688;2023-02-28T05:11:01;3.90;99.90
23813;DHT22;12087;45.190;5.688;2023-02-28T05:16:24;3.90;99.90
23813;DHT22;12087;45.190;5.688;2023-02-28T05:21:52;3.90;99.90
23813;DHT22;12087;45.190;5.688;2023-02-28T05:27:15;3.90;99.90
23813;DHT22;12087;45.190;5.688;2023-02-28T05:32:37;3.90;99.90
23813;DHT22;12087;45.190;5.688;2023-02-28T05:38:01;3.80;99.90
23813;DHT22;12087;45.190;5.688;2023-02-28T05:43:23;3.80;99.90
23813;DHT22;12087;45.190;5.688;2023-02-28T05:48:47;3.80;99.90
23813;DHT22;12087;45.190;5.688;2023-02-28T05:54:11;3.80;99.90
23813;DHT22;12087;45.190;5.688;2023-02-28T05:59:33;3.80;99.90
23813;DHT22;12087;45.190;5.688;2023-02-28T06:04:55;3.80;99.90
23813;DHT22;12087;45.190;5.688;2023-02-28T06:10:19;3.70;99.90
23813;DHT22;12087;45.190;5.688;2023-02-28T06:15:41;3.70;99.90
23813;DHT22;12087;45.190;5.688;2023-02-28T06:21:04;3.70;99.90
23813;DHT22;12087;45.190;5.688;2023-02-28T06:26:28;3.60;99.90
23813;DHT22;12087;45.190;5.688;2023-02-28T06:31:51;3.60;99.90
23813;DHT22;12087;45.190;5.688;2023-02-28T06:37:13;3.50;99.90
23813;DHT22;12087;45.190;5.688;2023-02-28T06:42:37;3.50;99.90
23813;DHT22;12087;45.190;5.688;2023-02-28T06:47:59;3.50;99.90
23813;DHT22;12087;45.190;5.688;2023-02-28T06:53:22;3.40;99.90
23813;DHT22;12087;45.190;5.688;2023-02-28T06:58:47;3.40;99.90
23813;DHT22;12087;45.190;5.688;2023-02-28T07:04:10;3.40;99.90
23813;DHT22;12087;45.190;5.688;2023-02-28T07:09:33;3.30;99.90
23813;DHT22;12087;45.190;5.688;2023-02-28T07:14:57;3.40;99.90
23813;DHT22;12087;45.190;5.688;2023-02-28T07:20:19;3.40;99.90
23813;DHT22;12087;45.190;5.688;2023-02-28T07:25:42;3.50;99.90
23813;DHT22;12087;45.190;5.688;2023-02-28T07:31:06;3.50;99.90
23813;DHT22;12087;45.190;5.688;2023-02-28T07:36:28;3.50;99.90
23813;DHT22;12087;45.190;5.688;2023-02-28T07:41:51;3.60;99.90
23813;DHT22;12087;45.190;5.688;2023-02-28T07:47:14;3.60;99.90
23813;DHT22;12087;45.190;5.688;2023-02-28T07:52:38;3.60;99.90
23813;DHT22;12087;45.190;5.688;2023-02-28T07:58:00;3.70;99.90
23813;DHT22;12087;45.190;5.688;2023-02-28T08:03:24;3.70;99.90
23813;DHT22;12087;45.190;5.688;2023-02-28T08:08:46;3.80;99.90
23813;DHT22;12087;45.190;5.688;2023-02-28T08:14:09;3.80;99.90
23813;DHT22;12087;45.190;5.688;2023-02-28T08:19:33;3.90;99.90
23813;DHT22;12087;45.190;5.688;2023-02-28T08:24:55;3.90;99.90
23813;DHT22;12087;45.190;5.688;2023-02-28T08:30:17;4.00;99.90
23813;DHT22;12087;45.190;5.688;2023-02-28T08:35:41;4.00;99.90
23813;DHT22;12087;45.190;5.688;2023-02-28T08:41:05;4.10;99.90
23813;DHT22;12087;45.190;5.688;2023-02-28T08:46:27;4.20;99.90
23813;DHT22;12087;45.190;5.688;2023-02-28T08:51:51;4.30;99.90
23813;DHT22;12087;45.190;5.688;2023-02-28T08:57:14;4.30;99.90
23813;DHT22;12087;45.190;5.688;2023-02-28T09:02:37;4.40;99.90
23813;DHT22;12087;45.190;5.688;2023-02-28T09:08:01;4.50;99.90
23813;DHT22;12087;45.190;5.688;2023-02-28T09:13:24;4.50;99.90
23813;DHT22;12087;45.190;5.688;2023-02-28T09:18:47;4.70;99.90
23813;DHT22;12087;45.190;5.688;2023-02-28T09:24:11;4.80;99.90
23813;DHT22;12087;45.190;5.688;2023-02-28T09:29:35;4.90;99.90
23813;DHT22;12087;45.190;5.688;2023-02-28T09:34:57;4.90;99.90
23813;DHT22;12087;45.190;5.688;2023-02-28T09:40:22;5.10;99.90
23813;DHT22;12087;45.190;5.688;2023-02-28T09:45:48;5.20;99.90
23813;DHT22;12087;45.190;5.688;2023-02-28T09:51:22;5.30;99.90
23813;DHT22;12087;45.190;5.688;2023-02-28T09:56:51;5.30;99.90
23813;DHT22;12087;45.190;5.688;2023-02-28T10:08:03;5.30;99.90
23813;DHT22;12087;45.190;5.688;2023-02-28T10:13:34;5.50;99.90
23813;DHT22;12087;45.190;5.688;2023-02-28T10:19:01;5.50;99.90
23813;DHT22;12087;45.190;5.688;2023-02-28T10:24:29;5.60;99.90
23813;DHT22;12087;45.190;5.688;2023-02-28T10:29:55;5.50;99.90
23813;DHT22;12087;45.190;5.688;2023-02-28T10:35:21;5.50;99.90
23813;DHT22;12087;45.190;5.688;2023-02-28T10:40:43;5.50;99.90
23813;DHT22;12087;45.190;5.688;2023-02-28T10:46:13;5.50;99.90
23813;DHT22;12087;45.190;5.688;2023-02-28T10:51:47;5.60;99.90
23813;DHT22;12087;45.190;5.688;2023-02-28T15:52:43;6.30;99.90
23813;DHT22;12087;45.190;5.688;2023-02-28T15:58:08;6.30;99.90
23813;DHT22;12087;45.190;5.688;2023-02-28T16:03:39;6.30;99.90
23813;DHT22;12087;45.190;5.688;2023-02-28T16:09:04;6.20;99.90
23813;DHT22;12087;45.190;5.688;2023-02-28T16:14:29;6.10;99.90
23813;DHT22;12087;45.190;5.688;2023-02-28T16:19:53;6.00;99.90
23813;DHT22;12087;45.190;5.688;2023-02-28T16:25:19;6.00;99.90
23813;DHT22;12087;45.190;5.688;2023-02-28T16:30:41;6.00;99.90
23813;DHT22;12087;45.190;5.688;2023-02-28T16:36:05;5.90;99.90
23813;DHT22;12087;45.190;5.688;2023-02-28T16:41:29;5.90;99.90
23813;DHT22;12087;45.190;5.688;2023-02-28T16:46:51;5.90;99.90
23813;DHT22;12087;45.190;5.688;2023-02-28T16:52:14;5.90;99.90
23813;DHT22;12087;45.190;5.688;2023-02-28T16:57:38;5.80;99.90
23813;DHT22;12087;45.190;5.688;2023-02-28T17:03:01;5.90;99.90
23813;DHT22;12087;45.190;5.688;2023-02-28T17:08:23;5.90;99.90
23813;DHT22;12087;45.190;5.688;2023-02-28T17:13:47;5.90;99.90
23813;DHT22;12087;45.190;5.688;2023-02-28T17:19:13;5.90;99.90
23813;DHT22;12087;45.190;5.688;2023-02-28T17:24:36;5.90;99.90
23813;DHT22;12087;45.190;5.688;2023-02-28T17:29:59;5.90;99.90
23813;DHT22;12087;45.190;5.688;2023-02-28T17:35:22;5.90;99.90
23813;DHT22;12087;45.190;5.688;2023-02-28T17:40:44;5.90;99.90
23813;DHT22;12087;45.190;5.688;2023-02-28T17:46:15;5.90;99.90
23813;DHT22;12087;45.190;5.688;2023-02-28T17:51:38;5.90;99.90
23813;DHT22;12087;45.190;5.688;2023-02-28T17:57:01;5.90;99.90
23813;DHT22;12087;45.190;5.688;2023-02-28T18:02:24;5.80;99.90
23813;DHT22;12087;45.190;5.688;2023-02-28T18:07:48;5.80;99.90
23813;DHT22;12087;45.190;5.688;2023-02-28T18:13:10;5.80;99.90
23813;DHT22;12087;45.190;5.688;2023-02-28T18:18:34;5.90;99.90
23813;DHT22;12087;45.190;5.688;2023-02-28T18:23:58;5.90;99.90
23813;DHT22;12087;45.190;5.688;2023-02-28T18:29:21;5.80;99.90
23813;DHT22;12087;45.190;5.688;2023-02-28T18:34:45;5.80;99.90
23813;DHT22;12087;45.190;5.688;2023-02-28T18:40:09;5.80;99.90
23813;DHT22;12087;45.190;5.688;2023-02-28T18:45:35;5.80;99.90
23813;DHT22;12087;45.190;5.688;2023-02-28T18:51:01;5.80;99.90
23813;DHT22;12087;45.190;5.688;2023-02-28T18:56:26;5.80;99.90
23813;DHT22;12087;45.190;5.688;2023-02-28T19:01:48;5.70;99.90
23813;DHT22;12087;45.190;5.688;2023-02-28T19:07:12;5.80;99.90
23813;DHT22;12087;45.190;5.688;2023-02-28T19:12:34;5.70;99.90
23813;DHT22;12087;45.190;5.688;2023-02-28T19:17:57;5.70;99.90
23813;DHT22;12087;45.190;5.688;2023-02-28T19:23:20;5.70;99.90
23813;DHT22;12087;45.190;5.688;2023-02-28T19:28:43;5.70;99.90
23813;DHT22;12087;45.190;5.688;2023-02-28T19:34:05;5.70;99.90
23813;DHT22;12087;45.190;5.688;2023-02-28T19:39:29;5.70;99.90
23813;DHT22;12087;45.190;5.688;2023-02-28T19:45:01;5.70;99.90
23813;DHT22;12087;45.190;5.688;2023-02-28T19:50:24;5.60;99.90
23813;DHT22;12087;45.190;5.688;2023-02-28T19:55:47;5.60;99.90
23813;DHT22;12087;45.190;5.688;2023-02-28T20:01:12;5.60;99.90
23813;DHT22;12087;45.190;5.688;2023-02-28T20:06:35;5.60;99.90
23813;DHT22;12087;45.190;5.688;2023-02-28T20:11:59;5.50;99.90
23813;DHT22;12087;45.190;5.688;2023-02-28T20:17:23;5.50;99.90
23813;DHT22;12087;45.190;5.688;2023-02-28T20:22:45;5.50;99.90
23813;DHT22;12087;45.190;5.688;2023-02-28T20:28:09;5.50;99.90
23813;DHT22;12087;45.190;5.688;2023-02-28T20:33:31;5.50;99.90
23813;DHT22;12087;45.190;5.688;2023-02-28T20:38:53;5.40;99.90
23813;DHT22;12087;45.190;5.688;2023-02-28T20:44:17;5.40;99.90
23813;DHT22;12087;45.190;5.688;2023-02-28T20:49:39;5.40;99.90
23813;DHT22;12087;45.190;5.688;2023-02-28T20:55:02;5.40;99.90
23813;DHT22;12087;45.190;5.688;2023-02-28T21:00:25;5.40;99.90
23813;DHT22;12087;45.190;5.688;2023-02-28T21:05:47;5.40;99.90
23813;DHT22;12087;45.190;5.688;2023-02-28T21:11:11;5.40;99.90
23813;DHT22;12087;45.190;5.688;2023-02-28T21:16:36;5.40;99.90
23813;DHT22;12087;45.190;5.688;2023-02-28T21:21:58;5.40;99.90
23813;DHT22;12087;45.190;5.688;2023-02-28T21:27:20;5.30;99.90
23813;DHT22;12087;45.190;5.688;2023-02-28T21:32:44;5.30;99.90
23813;DHT22;12087;45.190;5.688;2023-02-28T21:38:06;5.30;99.90
23813;DHT22;12087;45.190;5.688;2023-02-28T21:43:28;5.30;99.90
23813;DHT22;12087;45.190;5.688;2023-02-28T21:48:52;5.30;99.90
23813;DHT22;12087;45.190;5.688;2023-02-28T21:54:14;5.20;99.90
23813;DHT22;12087;45.190;5.688;2023-02-28T21:59:36;5.30;99.90
23813;DHT22;12087;45.190;5.688;2023-02-28T22:05:00;5.20;99.90
23813;DHT22;12087;45.190;5.688;2023-02-28T22:10:23;5.20;99.90
23813;DHT22;12087;45.190;5.688;2023-02-28T22:15:45;5.20;99.90
23813;DHT22;12087;45.190;5.688;2023-02-28T22:21:10;5.10;99.90
23813;DHT22;12087;45.190;5.688;2023-02-28T22:26:33;5.10;99.90
23813;DHT22;12087;45.190;5.688;2023-02-28T22:31:55;5.10;99.90
23813;DHT22;12087;45.190;5.688;2023-02-28T22:37:19;5.10;99.90
23813;DHT22;12087;45.190;5.688;2023-02-28T22:42:41;5.10;99.90
23813;DHT22;12087;45.190;5.688;2023-02-28T22:48:04;5.10;99.90
23813;DHT22;12087;45.190;5.688;2023-02-28T22:53:30;5.10;99.90
23813;DHT22;12087;45.190;5.688;2023-02-28T22:58:54;5.00;99.90
23813;DHT22;12087;45.190;5.688;2023-02-28T23:04:17;5.10;99.90
23813;DHT22;12087;45.190;5.688;2023-02-28T23:09:41;5.10;99.90
23813;DHT22;12087;45.190;5.688;2023-02-28T23:15:04;5.10;99.90
23813;DHT22;12087;45.190;5.688;2023-02-28T23:20:27;5.00;99.90
23813;DHT22;12087;45.190;5.688;2023-02-28T23:25:51;5.00;99.90
23813;DHT22;12087;45.190;5.688;2023-02-28T23:31:13;5.00;99.90
23813;DHT22;12087;45.190;5.688;2023-02-28T23:36:37;5.00;99.90
23813;DHT22;12087;45.190;5.688;2023-02-28T23:42:01;5.00;99.90
23813;DHT22;12087;45.190;5.688;2023-02-28T23:47:23;5.00;99.90
23813;DHT22;12087;45.190;5.688;2023-02-28T23:52:45;5.00;99.90
23813;DHT22;12087;45.190;5.688;2023-02-28T23:58:09;5.00;99.90
